Terminal Aerodrome Forecast
Issued by NWS Knoxville/Tri Cities, TN

Home | Current Version | Previous Version | Text Only | Print | Product List | Glossary On
Versions: 1 2 3 4 5 6 7 8 9 10 11 12 13 14 15 16 17 18 19 20 21 22 23 24 25 26 27 28 29 30 31 32 33 34
000
FTUS44 KMRX 271604 AAA
TAFTRI
TAF AMD
KTRI 271604Z 2716/2812 00000KT P6SM BKN020
     FM271700 30007KT P6SM SCT020 BKN035
     FM272000 28005KT P6SM SCT040 SCT100
     FM280100 00000KT P6SM SCT035
     FM280800 00000KT 3SM BR SCT003=

USA.gov is the U.S. government's official web portal to all federal, state and local government web resources and services.